Flugplatz Gundelfingen

Für EDMU sind keine METAR/TAF Berichte vorhanden.
Es werden die Flugwettermeldungen vom Flugplatz Augsburg in 45 km Entfernung angezeigt.

Bericht für EDMA

vom 28.09. um 22:20 UTC

variable Windrichtung mit 2 kt

Sichtweite 10 km oder mehr

bedeckt in 1700 ft

Temperatur 13.0°C

Taupunkt 12.0°C

Luftfeuchtigkeit 94%

Luftdruck 1019 hPa

EDMA 282220Z AUTO VRB02KT 9999 OVC017/// 13/12 Q1019

Prognose für EDMA

vom 28.09. um 17:00 UTC

Am 28.09. zwischen 18:00 UTC und 19:00 UTC

Wind 5 kt aus 60°

Sichtweite 10 km oder mehr

aufgebrochene Bewölkung in 2500 ft


Am 28.09. zwischen 19:00 und 21:00 UTC übergehend zu

variable Windrichtung mit 3 kt

Sichtweite 10 km oder mehr

aufgebrochene Bewölkung in 2500 ft


Zwischen 01:00 UTC und 03:00 UTC zeitweise mit einer Wahrscheinlichkeit von 40%

Wind 6 kt aus 240°

Sichtweite 4000 m

Regenschauer

aufgebrochene Bewölkung in 1200 ft

aufgebrochene Bewölkung in 2500 ft

TAF EDMA 281700Z 2818/2903 06005KT 9999 BKN025 BECMG 2819/2821 VRB03KT PROB40 TEMPO 2901/2903 24006KT 4000 SHRA BKN012 BKN025TCU
Impressum